Terminal Aerodrome Forecast
Issued by NWS

Home | Current Version | Previous Version | Text Only | Print | Product List | Glossary On
Versions: 1 2 3 4 5 6 7 8 9 10 11 12 13 14 15
353
FTUS43 KMQT 070531
TAFIWD
TAF
KIWD 070531Z 0706/0806 21011G16KT 4SM -SN OVC022
     FM071300 22010KT 3SM -SN BKN024
     FM071700 23010G15KT 2SM -SN OVC008
     FM072200 25006KT 1 1/2SM -SN OVC007
     FM080200 31004KT 1SM -SN OVC007
      AMD LTD TO CLD VIS AND WIND=

USA.gov is the U.S. government's official web portal to all federal, state and local government web resources and services.